Startpagina
METAR-TAF:

METAR-TAF

Vliegvelden :

Christmaseiland, Australië

breedte: 10-26S, lengte: 105-41E, hoogte: 279 m

Actueel weer

Dit bericht is 11 minuten geleden gemaakt, om 03:00 UTC
Wind 10 kt uit het oosten
Temperatuur 26°C
Vochtigheid 84%
Druk 1014 hPa
Zicht 10 km of meer
Geheel bewolkt op 1200 ft

METAR: YPXM 130300Z AUTO 08010KT 9999 // OVC012 26/23 Q1014 RF00.0/000.0

Tijdstip: 10:11 (03:11 UTC)

Verwachting

Dit bericht is 1 uur en het 35 minuten geleden gemaakt, om 01:36 UTC
Verwachting geldig van 13 om 01 UTC tot 14 om 00 UTC
Wind 10 kt uit het oosten
Zicht 10 km of meer
Gebroken wolken op 1400 ft

TAF: YPXM 130136Z 1301/1400 10010KT 9999 BKN014

Waarnemingen en weersverwachtingen van meer dan 4000 vliegvelden (METAR en TAF).

De beschikbare stations zijn de gele en rode punten op de kaart.

Ga met uw muis naar het station om de naam te zien.

Klik dan om waarnemingen en weersverwachtingen te zien.

kaart wijzigen: klik op de groene knoppen met een zwart kruis om in te zoomen, op de groene knop met een streepje om uit te zoomen of op de groene pijlen voor aangrenzende kaarten.


METAR-TAF: